Letadlo (typ, imatrikulační znak): _________________/__________________
Meno pilota: ___________________________________
Podpis pilota: ___________________________________

Předpověď na dnes

 LETOVA PREDPOVED PRO CR/OBLASTNI PREDPOVED PRO LKAA
 VRSTVA OD ZEME DO FL450
 PLATNOST  250400/251300 UTC.
 (VYSKOVE UDAJE JSOU UVEDENY VE STOVKACH FT MSL)
 SITUACE: KOLEM TLAKOVE NIZE NAD JIZNIM BALTEM K NAM BUDE PROUDIT
          PONEKUD TEPLEJSI VZDUCH OD JIHOZAPADU PRED STUDENOU FRONTOU,
          KTERA POZDEJI ODPOLEDNE POSTOUPI Z NEMECKA NAD SEVEROZAPADNI
          CECHY.
 VYSKOVY VITR A TEPLOTA (DEG,KT;DEG C)
 USEK TRATI:
 TROPO FL380-FL390  -61
 FL450      280/30  -53
 FL390      280/50  -60
 FL340      290/58  -54   OD ZAPADU  270/70
 FL300      290/54  -44   OD ZAPADU  270/78
 FL240      280/46  -29   OD ZAPADU  260/70
 FL180      270/40  -17   OD ZAPADU  260/66
 FL100      270/28  -00   OD ZAPADU  260/46
 FL050      270/22  +09   OD ZAPADU  250/34
 PRIZEMNI VITR (DEG,KT): 190-240/05-12KT BUDE ZESILOVAT NA 10-17KT
                         A HLAVNE V CECHAHC MISTY S NARAZY 26-34KT
 OBLACNOST
 CELKOVE POKRYTI A DRUH: SKC/SCT POZDEJI SCT/BKN CI AC SC CU
 NEJNIZSI VRSTVA: SKC/FEW POZDEJI SCT MISTY BKN SC CU
                  BASE 055-065
                  TOP SC 070  CU 100-120
 DALSI VRSTVA: SKC MISTY SCT AC
               BASE NAD 100
 DOHLEDNOST: NAD 10KM
 STAV POCASI: JASNO-POLOJASNO POZDEJI POLOJASNO-OBLACNO.
 VYSKA IZOTERMY 0 DEG C: 093-100
 TURBULENCE: SLABA POSTUPNE OD ZAPADU MIRNA DO 070
 NAMRAZA: NIL
 TLAK QNH (HPA): 1009-1013 SLABY OD ZAPADU MIRNY POKLES
 =
 

GAMET - Všeobecní letecká meteo zpráva

 LKAA GAMET VALID 250400/251000 LKPW-
 PRAHA FIR BLW FL100
 SECN I
 SFC VIS:  TL06 ISOL 3000-6000M BR
 SECN II
 PSYS:     06 WEST OCEANIC FLOW
 WIND/T:   WEST            EAST
 2000 FT:  240/24KT PS13   240/20KT PS15
 5000 FT:  260/34KT PS07   270/20KT PS08
 10000 FT: 270/30KT PS00   260/30KT PS01
 CLD:      SKC/FEW CU SC 5000-6000/6000-7000FT AMSL
 FZLVL:    XXXFT AMSL
 MNM QNH:  1010HPA
 VA:       NIL
 

AUP - využití vzdušního prostoru

Plan vyuzivani vzdusneho prostoru Ceske republiky
OD 25. 04. 2018 06:00 DO 26. 04. 2018 06:00
Odesilajici stanoviste: AMC Ceska republika
Datum a cas vydani: 24. 04. 2018 12:20:04
A/ Pouzitelne trate CDR 2:
P.c.TratPrvni bodPosl.bodSpodni hran.Horni hran.OdDoDopl.inf.
1.Z608ELMEKVEXILF245F66004:0005:59
2.Z608ELMEKVEXILF245F66006:0007:00
3.Z608ELMEKVEXILF440F66007:0022:00
B/ Uzavrene stale ATS trate a CDR 1:
P.c.TratPrvni bodPosl.bodSpodni hran.Horni hran.OdDoDopl.inf.
1.Z608ELMEKVEXILF245F44022:0023:10 TSA4 CLOSING
C/ Prostory TSA, TRA a omezene prostory (R) spravovane AMC:
P.c.ProstorSpodni hran.Horni hran.OdDoZodp.stanovisteDopl.info
1.TSA1GNDF26516:0020:00ACCLKAAFRN
2.TSA1GNDF26507:0013:00ACCLKAAFRN
3.TSA2AGNDF12506:0020:10ACCLKAAFRN
4.TSA2BGNDF13507:0018:10ACCLKAAFRN
5.TSA3GNDF06506:0014:00LKNAOAT
6.TSA3GND1000FT/AGL08:0016:00VEVZSOAT
7.TSA3AGNDF15507:0022:30ACCLKAAFRN
8.TSA4GND5000FT/AMSL08:0016:00LKNAOAT
9.TSA4AGNDF44007:0023:10ACCLKAAFRN
10.TSA4BGNDF44007:0023:10ACCLKAAFRN
11.TSA4CGNDF44007:0023:10ACCLKAAFRN
12.TSA4DGNDF44007:0023:10ACCLKAAFRN
13.KLATO1F125F16503:4605:59SUP 9/18PJE
14.KLATO2F095F12503:4605:59SUP 9/18PJE
15.TRA12GND5000FT/AMSL15:0023:00LKNAOAT
16.TRA13GND5000FT/AMSL15:0023:00LKNAOAT
17.TRA13GND5000FT/AMSL07:0013:00LKNAOAT
18.TRA311000FT/AGLF24507:0018:09LKPDOAT
19.TRA325000FT/AMSLF24507:0018:09LKPDOAT
20.TRA37F095F42007:0014:00LKVOOAT
21.TRA561000FT/AGLF12507:0020:00LKPDOAT
22.TRA573000FT/AMSLF12507:0020:00LKPDOAT
23.TRA6GND1000FT/AGL06:0013:00VEVZSOAT
24.TRA6GNDF09508:0013:00VEVZSPJE
25.TRA61GND3000FT/AMSL07:0018:09LKPDOAT
26.TRA623000FT/AMSLF24514:0018:09LKPDOAT
27.TRA623000FT/AMSLF24507:0014:00LKVOOAT
28.TRA63F095F12507:0020:00LKPDOAT
29.TRA71GND1000FT/AGL07:0018:09LKPDOAT
30.TRA73GND1000FT/AGL07:0018:09LKPDOAT
31.TRA761000FT/AGLF07508:0012:00LKPDOAT
32.TRA771000FT/AGLF24508:0012:00LKPDOAT
33.TRA781000FT/AGLF24508:0012:00LKPDOAT
34.TRA79F075F24508:0012:00LKPDOAT
35.TSA20300FT/AGL1000FT/AGL07:0018:09LKPDOAT
36.TSA26300FT/AGL1000FT/AGL08:0012:00LKPDOAT
37.TSA27300FT/AGL1000FT/AGL08:0012:00LKPDOAT
D/ Zmeny v omezeni vzdusneho prostoru (CAR) : N I L
Uvedeni 'NIL' v tomto seznamu znamena, ze omezene a nebezpecne prostory nespravovane AMC (LKR9 a LKD1 az LKD7), jsou aktivni v plnem rozsahu publikace v AIP CR.
E/ Vzdusne prostory s omezenou koordinaci (RCA) : N I L
F/ Doplnujici informace (Dalsi omezeni a navigacni vystrahy):
P.c.NOTAMSpodni hran.Horni hran.OdDoZodp.stanovisteDopl.info
1.A0264GNDF09507:0014:00LKPOPJE
2.A0286GNDF66005:0005:59LUKAWRN
3.A0286GNDF66006:0022:00LUKAWRN
4.A0352GND2000FT/AMSL12:0016:00CHOTUSICEWRN
5.B0382GND1000FT/AGL06:0014:00LKCRPJE
6.B0383GND1000FT/AGL07:0015:00BOBROVAWRN
Seznam F obsahuje odkazy jen na ty navigacni vystrahy, ktere byly AMC do doby vydani AUP znamy. Informace uvedene v seznamu F nenahrazuji informace prislusnych publikaci.

METAR a TAF

Praha - Ruzyně

 METAR LKPR 25.04. 06:30 ...
METAR LKPR 250630Z 21007KT CAVOK 15/09 Q1011 NOSIG RMK REG QNH 1008=
 TAF LKPR 25.04. 05:00 ...
TAF LKPR 250500Z 2506/2612 24010KT CAVOK      TEMPO 2509/2519 27020KT 9999 SCT040      PROB30 TEMPO 2513/2519 SCT040TCU      TEMPO 2519/2603 -RA BKN030      TEMPO 2607/2612 9999 SCT040=

Praha - Kbely

 METAR LKKB 25.04. 06:00 ...
METAR LKKB 250600Z 20007KT CAVOK 14/09 Q1012 NOSIG RMK BLU BLU=
 TAF LKKB 25.04. 05:00 ...
TAF LKKB 250500Z 2506/2606 21010KT CAVOK      BECMG 2508/2510 22014G30KT      TEMPO 2512/2600 24018G36KT SCT035      TEMPO 2518/2602 SHRA BKN030=

Karlovy Vary

 METAR LKKV 25.04. 06:30 ...
METAR LKKV 250630Z 24007KT 210V270 9999 FEW027 14/08 Q1011 RMK REG QNH 1008=
 TAF LKKV 25.04. 05:00 ...
TAF LKKV 250500Z 2506/2612 25007KT CAVOK      TEMPO 2507/2513 9999 SCT030      PROB40 TEMPO 2513/2519 BKN023TCU      TEMPO 2519/2603 -RA BKN020      BECMG 2606/2608 BKN023=

Plzeň - Líne

 METAR LKLN 25.04. 06:00 RRA
METAR LKLN 250600Z AUTO 20003KT CAVOK 11/08 Q1012=

Čáslav

 METAR LKCV 25.04. 06:00 ...
METAR LKCV 250600Z 18004KT 140V210 CAVOK 14/10 Q1012 RMK BLACK=

Pardubice

 METAR LKPD 25.04. 06:00 ...
METAR LKPD 250600Z 26003KT 240V320 CAVOK 16/10 Q1011 NOSIG RMK BLU BLU=
 TAF LKPD 25.04. 05:00 ...
TAF LKPD 250500Z 2506/2606 22006KT CAVOK      BECMG 2506/2508 25014KT      TEMPO 2509/2512 SCT030      TEMPO 2509/2520 27020G34KT      TEMPO 2602/2606 SHRA BKN030=

Liberec

lklb

Ostrava - Mošnov

 METAR LKMT 25.04. 06:30 ...
METAR LKMT 250630Z 23008KT CAVOK 15/09 Q1012 NOSIG RMK REG QNH 1008=
 TAF LKMT 25.04. 05:00 ...
TAF LKMT 250500Z 2506/2612 23011KT CAVOK      TEMPO 2509/2513 9999 SCT040      PROB30 TEMPO 2513/2519 SCT040TCU      TEMPO 2604/2609 -RA BKN030=

Přerov

 METAR - Not available LKPO  
 TAF - Not available LKPO  

Holešov

Omlouváme se, ale tato informace není momentálně k dispozici.

Brno - Tuřany

 METAR LKTB 25.04. 06:30 ...
METAR LKTB 250630Z 00000KT CAVOK 14/09 Q1013 NOSIG RMK REG QNH 1008=
 TAF LKTB 25.04. 05:00 ...
TAF LKTB 250500Z 2506/2612 VRB02KT CAVOK      BECMG 2506/2509 23007KT      TEMPO 2604/2609 9999 -RA BKN033=

Náměšť nad Oslavou

 METAR LKNA 25.04. 06:00 ...
METAR LKNA 250600Z 20004KT CAVOK 13/09 Q1013 NOSIG RMK BLU BLU=
 TAF LKNA 25.04. 05:00 ...
TAF LKNA 250500Z 2506/2606 25006KT CAVOK      BECMG 2508/2510 24014G28KT 9999 BKN030      BECMG 2518/2520 31012KT CAVOK=

NOTAMy

Omlouváme se, ale tato informace není momentálně k dispozici.